EEST,Max TemperatureF,Mean TemperatureF,Min TemperatureF,Max Dew PointF,MeanDew PointF,Min DewpointF,Max Humidity, Mean Humidity, Min Humidity, Max Sea Level PressureIn, Mean Sea Level PressureIn, Min Sea Level PressureIn, Max VisibilityMiles, Mean VisibilityMiles, Min VisibilityMiles, Max Wind SpeedMPH, Mean Wind SpeedMPH, Max Gust SpeedMPH,PrecipitationIn, CloudCover, Events, WindDirDegrees
2013-3-1,46,39,32,34,31,28,93,70,47,30.22,30.12,30.04,6,3,2,10,5,,0.00,1,,257
2013-3-2,53,46,40,41,37,32,81,66,43,30.12,30.02,29.98,6,6,6,13,8,,0.00,5,,232
2013-3-3,50,46,41,37,34,30,76,64,41,30.13,30.02,29.92,6,6,6,20,13,28,0.00,4,,44
2013-3-4,52,42,32,37,32,27,87,65,40,30.24,30.08,29.98,6,6,6,17,8,,0.00,2,,350
2013-3-5,48,42,37,37,26,16,87,54,25,30.52,30.43,30.24,6,6,6,16,10,,0.00,4,,26
2013-3-6,54,42,31,34,24,9,62,47,15,30.51,30.37,30.15,12,8,6,8,5,,0.00,,,102
2013-3-7,58,51,44,39,32,23,71,47,17,30.16,30.08,29.98,6,6,6,10,3,,0.00,6,,194
2013-3-8,59,54,49,50,43,37,100,70,41,29.98,29.89,29.83,6,6,4,10,6,,0.03,6,Rain,226
2013-3-9,58,54,49,52,48,45,100,82,67,29.84,29.79,29.74,6,6,6,14,7,21,0.04,6,Rain,222
2013-3-10,64,57,50,50,48,45,100,76,53,29.75,29.72,29.68,6,6,6,14,7,,0.00,4,,224
2013-3-11,61,56,51,50,47,45,82,70,59,29.71,29.62,29.53,6,6,6,14,8,,0.00,5,Rain,233
2013-3-12,63,57,51,52,49,45,82,73,47,29.62,29.57,29.53,6,6,6,12,5,,0.00,4,Rain,226
2013-3-13,62,56,49,50,45,41,82,67,44,29.77,29.70,29.62,6,6,6,15,6,,0.00,3,,227
2013-3-14,69,60,51,45,43,39,76,53,25,29.75,29.58,29.36,6,6,6,16,7,,0.00,5,Rain,151
2013-3-15,58,54,50,54,46,37,100,70,29,29.56,29.43,29.33,7,6,4,30,15,44,0.03,6,Rain-Hail-Thunderstorm,211
2013-3-16,41,38,34,43,35,32,93,85,70,30.04,29.83,29.59,6,4,2,25,17,,0.16,6,Rain-Snow,3
2013-3-17,43,40,36,34,32,28,87,74,57,30.24,30.14,30.04,6,5,3,15,10,,0.00,6,Rain-Snow,351
2013-3-18,51,41,31,34,29,21,93,61,26,30.27,30.14,29.95,6,4,2,9,5,,0.00,2,,83
2013-3-19,59,52,45,45,41,34,76,64,46,29.95,29.81,29.71,12,6,4,21,9,17,0.00,4,Rain,213
2013-3-20,64,58,52,48,45,43,76,66,47,29.98,29.93,29.83,6,6,4,12,5,,0.00,6,,211
2013-3-21,65,59,53,45,43,39,72,52,33,29.92,29.74,29.50,6,6,6,12,5,,0.00,6,,105
2013-3-22,52,47,42,50,42,32,100,77,32,29.59,29.49,29.44,6,5,2,20,7,,0.28,6,Rain,276
2013-3-23,51,46,40,37,33,30,81,63,35,29.98,29.83,29.62,6,6,4,15,10,,0.00,5,Rain,271
2013-3-24,60,48,37,41,36,32,93,62,30,30.09,30.04,29.98,12,3,2,10,4,,0.00,,,28
2013-3-25,55,50,44,43,41,39,93,74,47,30.05,29.94,29.71,6,6,6,18,13,,0.00,5,Rain,17
2013-3-26,63,54,45,50,45,42,100,80,41,29.74,29.62,29.53,6,5,2,15,9,,0.12,6,Rain-Thunderstorm,21
2013-3-27,48,46,44,48,42,39,100,86,72,29.89,29.78,29.62,6,5,2,21,15,,0.03,6,Rain,3
2013-3-28,49,46,44,46,40,36,100,78,54,30.18,30.05,29.89,6,5,2,15,12,,0.00,6,Rain,35
2013-3-29,55,48,42,45,40,35,82,70,56,30.20,30.12,30.04,6,5,4,10,7,,0.02,4,Rain,68
2013-3-30,66,54,43,50,46,41,93,70,46,30.04,29.96,29.89,6,6,4,9,5,,0.00,4,Rain,253
2013-3-31,77,65,53,50,45,41,77,47,21,29.89,29.80,29.74,6,4,2,9,3,,0.00,3,,181
2013-4-1,,,,,,,,,,,,,,,,,,,,,,